sensor_id;sensor_type;location;lat;lon;timestamp;pressure;altitude;pressure_sealevel;temperature;humidity
64352;BME280;50680;52.626;-8.668;2022-09-03T00:01:40;100485.97;;;11.58;100.00
64352;BME280;50680;52.626;-8.668;2022-09-03T00:04:24;100477.38;;;11.56;100.00
64352;BME280;50680;52.626;-8.668;2022-09-03T00:07:00;100473.25;;;11.52;100.00
64352;BME280;50680;52.626;-8.668;2022-09-03T00:09:40;100474.03;;;11.54;100.00
64352;BME280;50680;52.626;-8.668;2022-09-03T00:12:16;100477.56;;;11.53;100.00
64352;BME280;50680;52.626;-8.668;2022-09-03T00:15:03;100468.44;;;11.46;100.00
64352;BME280;50680;52.626;-8.668;2022-09-03T00:17:44;100463.81;;;11.50;100.00
64352;BME280;50680;52.626;-8.668;2022-09-03T00:20:19;100462.34;;;11.45;100.00
64352;BME280;50680;52.626;-8.668;2022-09-03T00:22:53;100456.56;;;11.40;100.00
64352;BME280;50680;52.626;-8.668;2022-09-03T00:25:27;100459.50;;;11.36;100.00
64352;BME280;50680;52.626;-8.668;2022-09-03T00:27:56;100449.38;;;11.29;100.00
64352;BME280;50680;52.626;-8.668;2022-09-03T00:30:25;100454.19;;;11.23;100.00
64352;BME280;50680;52.626;-8.668;2022-09-03T00:33:06;100455.25;;;11.20;100.00
64352;BME280;50680;52.626;-8.668;2022-09-03T00:36:04;100457.34;;;11.15;100.00
64352;BME280;50680;52.626;-8.668;2022-09-03T00:38:36;100454.38;;;11.07;100.00
64352;BME280;50680;52.626;-8.668;2022-09-03T00:41:37;100455.88;;;11.11;100.00
64352;BME280;50680;52.626;-8.668;2022-09-03T00:44:25;100457.00;;;11.07;100.00
64352;BME280;50680;52.626;-8.668;2022-09-03T00:47:03;100451.13;;;11.03;100.00
64352;BME280;50680;52.626;-8.668;2022-09-03T00:54:57;100452.19;;;10.86;100.00
64352;BME280;50680;52.626;-8.668;2022-09-03T00:57:57;100438.78;;;10.78;100.00
64352;BME280;50680;52.626;-8.668;2022-09-03T01:00:27;100444.22;;;10.75;100.00
64352;BME280;50680;52.626;-8.668;2022-09-03T01:03:04;100445.53;;;10.68;100.00
64352;BME280;50680;52.626;-8.668;2022-09-03T01:05:41;100446.03;;;10.60;100.00
64352;BME280;50680;52.626;-8.668;2022-09-03T01:22:21;100428.94;;;10.26;100.00
64352;BME280;50680;52.626;-8.668;2022-09-03T01:27:41;100420.31;;;10.24;100.00
64352;BME280;50680;52.626;-8.668;2022-09-03T01:30:17;100424.84;;;10.22;100.00
64352;BME280;50680;52.626;-8.668;2022-09-03T01:32:57;100419.69;;;10.20;100.00
64352;BME280;50680;52.626;-8.668;2022-09-03T01:38:32;100422.31;;;10.20;100.00
64352;BME280;50680;52.626;-8.668;2022-09-03T01:46:40;100418.75;;;10.21;100.00
64352;BME280;50680;52.626;-8.668;2022-09-03T01:49:29;100408.00;;;10.11;100.00
64352;BME280;50680;52.626;-8.668;2022-09-03T01:52:02;100419.41;;;10.25;100.00
64352;BME280;50680;52.626;-8.668;2022-09-03T01:55:17;100429.25;;;10.21;100.00
64352;BME280;50680;52.626;-8.668;2022-09-03T01:57:38;100423.13;;;10.21;100.00
64352;BME280;50680;52.626;-8.668;2022-09-03T02:00:16;100424.00;;;10.21;100.00
64352;BME280;50680;52.626;-8.668;2022-09-03T02:02:48;100427.44;;;10.22;100.00
64352;BME280;50680;52.626;-8.668;2022-09-03T02:05:25;100418.84;;;10.20;100.00
64352;BME280;50680;52.626;-8.668;2022-09-03T02:13:07;100413.69;;;10.18;100.00
64352;BME280;50680;52.626;-8.668;2022-09-03T02:15:41;100406.88;;;10.15;100.00
64352;BME280;50680;52.626;-8.668;2022-09-03T02:18:14;100409.78;;;10.11;100.00
64352;BME280;50680;52.626;-8.668;2022-09-03T02:20:43;100407.44;;;10.06;100.00
64352;BME280;50680;52.626;-8.668;2022-09-03T02:23:10;100401.66;;;10.01;100.00
64352;BME280;50680;52.626;-8.668;2022-09-03T02:25:41;100405.59;;;9.94;100.00
64352;BME280;50680;52.626;-8.668;2022-09-03T02:28:10;100411.97;;;9.90;100.00
64352;BME280;50680;52.626;-8.668;2022-09-03T02:30:53;100403.47;;;9.86;100.00
64352;BME280;50680;52.626;-8.668;2022-09-03T02:33:20;100406.34;;;9.82;100.00
64352;BME280;50680;52.626;-8.668;2022-09-03T02:35:47;100408.31;;;9.78;100.00
64352;BME280;50680;52.626;-8.668;2022-09-03T02:38:20;100399.91;;;9.73;100.00
64352;BME280;50680;52.626;-8.668;2022-09-03T02:40:48;100402.69;;;9.70;100.00
64352;BME280;50680;52.626;-8.668;2022-09-03T02:43:26;100401.88;;;9.69;100.00
64352;BME280;50680;52.626;-8.668;2022-09-03T02:46:01;100400.16;;;9.68;100.00
64352;BME280;50680;52.626;-8.668;2022-09-03T02:48:29;100402.78;;;9.68;100.00
64352;BME280;50680;52.626;-8.668;2022-09-03T02:50:56;100401.88;;;9.69;100.00
64352;BME280;50680;52.626;-8.668;2022-09-03T02:53:23;100395.75;;;9.69;100.00
64352;BME280;50680;52.626;-8.668;2022-09-03T02:55:50;100393.16;;;9.69;100.00
64352;BME280;50680;52.626;-8.668;2022-09-03T02:58:17;100394.09;;;9.68;100.00
64352;BME280;50680;52.626;-8.668;2022-09-03T03:00:44;100392.41;;;9.67;100.00
64352;BME280;50680;52.626;-8.668;2022-09-03T03:03:11;100389.78;;;9.67;100.00
64352;BME280;50680;52.626;-8.668;2022-09-03T03:05:47;100387.25;;;9.65;100.00
64352;BME280;50680;52.626;-8.668;2022-09-03T03:08:14;100384.72;;;9.64;100.00
64352;BME280;50680;52.626;-8.668;2022-09-03T03:10:42;100384.00;;;9.62;100.00
64352;BME280;50680;52.626;-8.668;2022-09-03T03:13:11;100381.47;;;9.60;100.00
64352;BME280;50680;52.626;-8.668;2022-09-03T03:15:38;100385.03;;;9.59;100.00
64352;BME280;50680;52.626;-8.668;2022-09-03T03:18:05;100383.44;;;9.56;100.00
64352;BME280;50680;52.626;-8.668;2022-09-03T03:20:33;100385.38;;;9.53;100.00
64352;BME280;50680;52.626;-8.668;2022-09-03T03:23:04;100386.44;;;9.50;100.00
64352;BME280;50680;52.626;-8.668;2022-09-03T03:25:32;100376.97;;;9.48;100.00
64352;BME280;50680;52.626;-8.668;2022-09-03T03:27:59;100376.31;;;9.44;100.00
64352;BME280;50680;52.626;-8.668;2022-09-03T03:30:26;100370.44;;;9.40;100.00
64352;BME280;50680;52.626;-8.668;2022-09-03T03:32:54;100359.22;;;9.38;100.00
64352;BME280;50680;52.626;-8.668;2022-09-03T03:35:21;100362.19;;;9.32;100.00
64352;BME280;50680;52.626;-8.668;2022-09-03T03:37:48;100346.13;;;9.24;100.00
64352;BME280;50680;52.626;-8.668;2022-09-03T03:40:15;100359.22;;;9.24;100.00
64352;BME280;50680;52.626;-8.668;2022-09-03T03:42:42;100354.34;;;9.18;100.00
64352;BME280;50680;52.626;-8.668;2022-09-03T03:45:09;100363.31;;;9.14;100.00
64352;BME280;50680;52.626;-8.668;2022-09-03T03:47:36;100360.13;;;9.09;100.00
64352;BME280;50680;52.626;-8.668;2022-09-03T03:50:03;100357.69;;;9.06;100.00
64352;BME280;50680;52.626;-8.668;2022-09-03T03:52:30;100359.63;;;9.02;100.00
64352;BME280;50680;52.626;-8.668;2022-09-03T03:54:57;100363.16;;;9.01;100.00
64352;BME280;50680;52.626;-8.668;2022-09-03T03:57:24;100365.59;;;9.04;100.00
64352;BME280;50680;52.626;-8.668;2022-09-03T03:59:51;100373.38;;;9.06;100.00
64352;BME280;50680;52.626;-8.668;2022-09-03T04:02:18;100372.63;;;9.03;100.00
64352;BME280;50680;52.626;-8.668;2022-09-03T04:04:44;100364.03;;;9.01;100.00
64352;BME280;50680;52.626;-8.668;2022-09-03T04:07:12;100361.66;;;8.97;100.00
64352;BME280;50680;52.626;-8.668;2022-09-03T04:09:38;100362.69;;;8.94;100.00
64352;BME280;50680;52.626;-8.668;2022-09-03T04:12:05;100366.16;;;8.95;100.00
64352;BME280;50680;52.626;-8.668;2022-09-03T04:14:34;100362.09;;;8.89;100.00
64352;BME280;50680;52.626;-8.668;2022-09-03T04:17:01;100357.53;;;8.93;100.00
64352;BME280;50680;52.626;-8.668;2022-09-03T04:19:29;100364.53;;;8.92;100.00
64352;BME280;50680;52.626;-8.668;2022-09-03T04:21:55;100359.47;;;8.89;100.00
64352;BME280;50680;52.626;-8.668;2022-09-03T04:24:22;100363.13;;;8.87;100.00
64352;BME280;50680;52.626;-8.668;2022-09-03T04:26:49;100367.44;;;8.88;100.00
64352;BME280;50680;52.626;-8.668;2022-09-03T04:29:16;100361.34;;;8.87;100.00
64352;BME280;50680;52.626;-8.668;2022-09-03T04:31:44;100359.69;;;8.86;100.00
64352;BME280;50680;52.626;-8.668;2022-09-03T04:34:30;100358.16;;;8.82;100.00
64352;BME280;50680;52.626;-8.668;2022-09-03T04:36:57;100348.91;;;8.76;100.00
64352;BME280;50680;52.626;-8.668;2022-09-03T04:39:24;100334.59;;;8.68;100.00
64352;BME280;50680;52.626;-8.668;2022-09-03T04:41:51;100348.50;;;8.68;100.00
64352;BME280;50680;52.626;-8.668;2022-09-03T04:44:18;100356.50;;;8.65;100.00
64352;BME280;50680;52.626;-8.668;2022-09-03T04:46:45;100357.53;;;8.62;100.00
64352;BME280;50680;52.626;-8.668;2022-09-03T04:49:13;100361.94;;;8.62;100.00
64352;BME280;50680;52.626;-8.668;2022-09-03T04:51:40;100368.81;;;8.63;100.00
64352;BME280;50680;52.626;-8.668;2022-09-03T04:54:07;100355.84;;;8.61;100.00
64352;BME280;50680;52.626;-8.668;2022-09-03T04:56:37;100350.44;;;8.64;100.00
64352;BME280;50680;52.626;-8.668;2022-09-03T04:59:06;100345.97;;;8.66;100.00
64352;BME280;50680;52.626;-8.668;2022-09-03T05:01:36;100334.59;;;8.68;100.00
64352;BME280;50680;52.626;-8.668;2022-09-03T05:04:04;100336.09;;;8.72;100.00
64352;BME280;50680;52.626;-8.668;2022-09-03T05:06:32;100342.84;;;8.76;100.00
64352;BME280;50680;52.626;-8.668;2022-09-03T05:08:59;100342.66;;;8.79;100.00
64352;BME280;50680;52.626;-8.668;2022-09-03T05:11:28;100338.19;;;8.81;100.00
64352;BME280;50680;52.626;-8.668;2022-09-03T05:13:57;100338.00;;;8.84;100.00
64352;BME280;50680;52.626;-8.668;2022-09-03T05:16:25;100325.78;;;8.84;100.00
64352;BME280;50680;52.626;-8.668;2022-09-03T05:18:55;100330.06;;;8.85;100.00
64352;BME280;50680;52.626;-8.668;2022-09-03T05:21:25;100331.09;;;8.83;100.00
64352;BME280;50680;52.626;-8.668;2022-09-03T05:23:52;100316.34;;;8.82;100.00
64352;BME280;50680;52.626;-8.668;2022-09-03T05:26:27;100324.94;;;8.84;100.00
64352;BME280;50680;52.626;-8.668;2022-09-03T05:28:57;100333.53;;;8.86;100.00
64352;BME280;50680;52.626;-8.668;2022-09-03T05:31:26;100333.47;;;8.88;100.00
64352;BME280;50680;52.626;-8.668;2022-09-03T05:33:55;100316.81;;;8.89;100.00
64352;BME280;50680;52.626;-8.668;2022-09-03T05:36:32;100310.75;;;8.88;100.00
64352;BME280;50680;52.626;-8.668;2022-09-03T05:39:00;100326.06;;;8.94;100.00
64352;BME280;50680;52.626;-8.668;2022-09-03T05:41:27;100336.34;;;8.97;100.00
64352;BME280;50680;52.626;-8.668;2022-09-03T05:43:55;100340.59;;;9.00;100.00
64352;BME280;50680;52.626;-8.668;2022-09-03T05:46:34;100341.41;;;9.00;100.00
64352;BME280;50680;52.626;-8.668;2022-09-03T05:49:05;100336.19;;;9.00;100.00
64352;BME280;50680;52.626;-8.668;2022-09-03T05:51:33;100343.94;;;9.02;100.00
64352;BME280;50680;52.626;-8.668;2022-09-03T05:54:01;100340.13;;;9.08;100.00
64352;BME280;50680;52.626;-8.668;2022-09-03T05:56:30;100338.16;;;9.11;100.00
64352;BME280;50680;52.626;-8.668;2022-09-03T05:58:59;100339.09;;;9.10;100.00
64352;BME280;50680;52.626;-8.668;2022-09-03T06:01:32;100344.44;;;9.09;100.00
64352;BME280;50680;52.626;-8.668;2022-09-03T06:04:02;100346.25;;;9.07;100.00
64352;BME280;50680;52.626;-8.668;2022-09-03T06:06:33;100353.44;;;9.03;100.00
64352;BME280;50680;52.626;-8.668;2022-09-03T06:09:20;100336.34;;;8.97;100.00
64352;BME280;50680;52.626;-8.668;2022-09-03T06:11:48;100341.03;;;9.07;100.00
64352;BME280;50680;52.626;-8.668;2022-09-03T06:14:18;100331.34;;;9.09;100.00
64352;BME280;50680;52.626;-8.668;2022-09-03T06:16:47;100339.84;;;9.12;100.00
64352;BME280;50680;52.626;-8.668;2022-09-03T06:19:18;100332.56;;;9.17;100.00
64352;BME280;50680;52.626;-8.668;2022-09-03T06:21:46;100338.47;;;9.21;100.00
64352;BME280;50680;52.626;-8.668;2022-09-03T06:24:20;100344.44;;;9.23;100.00
64352;BME280;50680;52.626;-8.668;2022-09-03T06:26:53;100341.81;;;9.23;100.00
64352;BME280;50680;52.626;-8.668;2022-09-03T06:29:20;100338.47;;;9.21;100.00
64352;BME280;50680;52.626;-8.668;2022-09-03T06:31:47;100336.69;;;9.21;100.00
64352;BME280;50680;52.626;-8.668;2022-09-03T06:34:16;100343.69;;;9.21;100.00
64352;BME280;50680;52.626;-8.668;2022-09-03T06:36:44;100346.22;;;9.22;100.00
64352;BME280;50680;52.626;-8.668;2022-09-03T06:39:11;100336.59;;;9.23;100.00
64352;BME280;50680;52.626;-8.668;2022-09-03T06:41:38;100329.50;;;9.25;100.00
64352;BME280;50680;52.626;-8.668;2022-09-03T06:44:06;100336.13;;;9.31;100.00
64352;BME280;50680;52.626;-8.668;2022-09-03T06:46:39;100332.31;;;9.36;100.00
64352;BME280;50680;52.626;-8.668;2022-09-03T06:49:09;100330.34;;;9.40;100.00
64352;BME280;50680;52.626;-8.668;2022-09-03T06:51:37;100326.59;;;9.44;100.00
64352;BME280;50680;52.626;-8.668;2022-09-03T06:54:09;100324.72;;;9.46;100.00
64352;BME280;50680;52.626;-8.668;2022-09-03T06:56:38;100316.69;;;9.49;100.00
64352;BME280;50680;52.626;-8.668;2022-09-03T06:59:11;100321.75;;;9.52;100.00
64352;BME280;50680;52.626;-8.668;2022-09-03T07:01:39;100324.94;;;9.57;100.00
64352;BME280;50680;52.626;-8.668;2022-09-03T07:04:11;100323.88;;;9.60;100.00
64352;BME280;50680;52.626;-8.668;2022-09-03T07:06:39;100325.47;;;9.63;100.00
64352;BME280;50680;52.626;-8.668;2022-09-03T07:09:10;100325.22;;;9.67;100.00
64352;BME280;50680;52.626;-8.668;2022-09-03T07:11:37;100319.75;;;9.70;100.00
64352;BME280;50680;52.626;-8.668;2022-09-03T07:14:13;100324.81;;;9.73;100.00
64352;BME280;50680;52.626;-8.668;2022-09-03T07:16:40;100332.38;;;9.78;100.00
64352;BME280;50680;52.626;-8.668;2022-09-03T07:19:08;100324.44;;;9.79;100.00
64352;BME280;50680;52.626;-8.668;2022-09-03T07:21:36;100322.00;;;9.76;100.00
64352;BME280;50680;52.626;-8.668;2022-09-03T07:24:04;100329.47;;;9.83;100.00
64352;BME280;50680;52.626;-8.668;2022-09-03T07:26:41;100329.47;;;9.83;100.00
64352;BME280;50680;52.626;-8.668;2022-09-03T07:29:12;100336.03;;;9.90;100.00
64352;BME280;50680;52.626;-8.668;2022-09-03T07:31:42;100335.81;;;9.93;100.00
64352;BME280;50680;52.626;-8.668;2022-09-03T07:34:11;100332.06;;;9.97;100.00
64352;BME280;50680;52.626;-8.668;2022-09-03T07:36:40;100343.09;;;10.02;100.00
64352;BME280;50680;52.626;-8.668;2022-09-03T07:39:09;100337.56;;;10.07;100.00
64352;BME280;50680;52.626;-8.668;2022-09-03T07:41:40;100336.13;;;10.15;100.00
64352;BME280;50680;52.626;-8.668;2022-09-03T07:44:09;100326.00;;;10.24;100.00
64352;BME280;50680;52.626;-8.668;2022-09-03T07:46:36;100323.78;;;10.32;100.00
64352;BME280;50680;52.626;-8.668;2022-09-03T07:49:04;100324.22;;;10.39;100.00
64352;BME280;50680;52.626;-8.668;2022-09-03T07:51:34;100313.09;;;10.35;100.00
64352;BME280;50680;52.626;-8.668;2022-09-03T07:54:03;100319.53;;;10.44;100.00
64352;BME280;50680;52.626;-8.668;2022-09-03T07:56:34;100314.50;;;10.53;100.00
64352;BME280;50680;52.626;-8.668;2022-09-03T07:59:02;100302.19;;;10.68;100.00
64352;BME280;50680;52.626;-8.668;2022-09-03T08:01:30;100306.78;;;10.78;100.00
64352;BME280;50680;52.626;-8.668;2022-09-03T08:03:59;100303.25;;;10.91;100.00
64352;BME280;50680;52.626;-8.668;2022-09-03T08:06:28;100310.72;;;10.98;100.00
64352;BME280;50680;52.626;-8.668;2022-09-03T08:08:59;100299.91;;;11.02;100.00
64352;BME280;50680;52.626;-8.668;2022-09-03T08:11:31;100298.34;;;11.13;100.00
64352;BME280;50680;52.626;-8.668;2022-09-03T08:14:02;100298.44;;;11.24;100.00
64352;BME280;50680;52.626;-8.668;2022-09-03T08:16:40;100294.66;;;11.41;100.00
64352;BME280;50680;52.626;-8.668;2022-09-03T08:19:08;100296.31;;;11.55;100.00
64352;BME280;50680;52.626;-8.668;2022-09-03T08:21:35;100303.22;;;11.69;100.00
64352;BME280;50680;52.626;-8.668;2022-09-03T08:24:02;100300.13;;;11.75;100.00
64352;BME280;50680;52.626;-8.668;2022-09-03T08:26:34;100298.22;;;11.90;100.00
64352;BME280;50680;52.626;-8.668;2022-09-03T08:29:02;100300.81;;;12.02;100.00
64352;BME280;50680;52.626;-8.668;2022-09-03T08:31:30;100303.31;;;12.17;100.00
64352;BME280;50680;52.626;-8.668;2022-09-03T08:33:59;100310.91;;;12.33;100.00
64352;BME280;50680;52.626;-8.668;2022-09-03T08:36:29;100301.91;;;12.48;100.00
64352;BME280;50680;52.626;-8.668;2022-09-03T08:38:58;100308.06;;;12.71;100.00
64352;BME280;50680;52.626;-8.668;2022-09-03T08:44:57;100283.06;;;13.24;100.00
64352;BME280;50680;52.626;-8.668;2022-09-03T08:47:48;100276.31;;;13.87;100.00
64352;BME280;50680;52.626;-8.668;2022-09-03T08:50:37;100277.63;;;14.25;100.00
64352;BME280;50680;52.626;-8.668;2022-09-03T08:53:16;100273.69;;;14.31;100.00
64352;BME280;50680;52.626;-8.668;2022-09-03T08:56:17;100286.00;;;14.30;100.00
64352;BME280;50680;52.626;-8.668;2022-09-03T08:58:46;100283.47;;;14.40;100.00
64352;BME280;50680;52.626;-8.668;2022-09-03T09:09:46;100288.09;;;16.23;100.00
64352;BME280;50680;52.626;-8.668;2022-09-03T09:17:24;100268.72;;;16.03;100.00
64352;BME280;50680;52.626;-8.668;2022-09-03T09:20:15;100274.84;;;15.94;100.00
64352;BME280;50680;52.626;-8.668;2022-09-03T09:22:46;100278.69;;;15.90;100.00
64352;BME280;50680;52.626;-8.668;2022-09-03T09:25:20;100272.03;;;15.86;100.00
64352;BME280;50680;52.626;-8.668;2022-09-03T09:28:01;100280.09;;;15.84;100.00
64352;BME280;50680;52.626;-8.668;2022-09-03T09:30:30;100280.78;;;15.76;100.00
64352;BME280;50680;52.626;-8.668;2022-09-03T09:32:58;100273.28;;;15.91;100.00
64352;BME280;50680;52.626;-8.668;2022-09-03T09:35:26;100275.69;;;16.04;100.00
64352;BME280;50680;52.626;-8.668;2022-09-03T09:37:55;100281.28;;;16.11;100.00
64352;BME280;50680;52.626;-8.668;2022-09-03T09:40:29;100277.50;;;16.33;100.00
64352;BME280;50680;52.626;-8.668;2022-09-03T09:45:48;100280.69;;;16.66;100.00
64352;BME280;50680;52.626;-8.668;2022-09-03T09:48:25;100271.75;;;16.96;100.00
64352;BME280;50680;52.626;-8.668;2022-09-03T09:51:04;100269.97;;;17.62;100.00
64352;BME280;50680;52.626;-8.668;2022-09-03T09:53:31;100272.16;;;18.30;100.00
64352;BME280;50680;52.626;-8.668;2022-09-03T09:55:58;100272.97;;;18.85;100.00
64352;BME280;50680;52.626;-8.668;2022-09-03T09:58:26;100270.06;;;19.30;100.00
64352;BME280;50680;52.626;-8.668;2022-09-03T10:03:32;100270.56;;;19.00;100.00
64352;BME280;50680;52.626;-8.668;2022-09-03T10:06:08;100263.22;;;19.20;100.00
64352;BME280;50680;52.626;-8.668;2022-09-03T10:09:27;100262.28;;;19.37;100.00
64352;BME280;50680;52.626;-8.668;2022-09-03T10:12:15;100250.69;;;19.38;100.00
64352;BME280;50680;52.626;-8.668;2022-09-03T10:17:30;100247.06;;;19.13;100.00
64352;BME280;50680;52.626;-8.668;2022-09-03T10:20:17;100252.25;;;18.88;100.00
64352;BME280;50680;52.626;-8.668;2022-09-03T10:28:38;100243.69;;;19.03;100.00
64352;BME280;50680;52.626;-8.668;2022-09-03T10:49:57;100224.59;;;20.17;92.20
64352;BME280;50680;52.626;-8.668;2022-09-03T10:55:19;100212.31;;;20.16;73.29
64352;BME280;50680;52.626;-8.668;2022-09-03T10:58:07;100218.47;;;20.33;77.60
64352;BME280;50680;52.626;-8.668;2022-09-03T11:00:44;100218.81;;;20.38;79.42
64352;BME280;50680;52.626;-8.668;2022-09-03T11:06:09;100218.97;;;20.28;71.26
64352;BME280;50680;52.626;-8.668;2022-09-03T11:08:46;100222.09;;;20.16;73.31
64352;BME280;50680;52.626;-8.668;2022-09-03T11:11:19;100223.59;;;20.10;75.95
64352;BME280;50680;52.626;-8.668;2022-09-03T11:13:59;100219.97;;;20.11;74.09
64352;BME280;50680;52.626;-8.668;2022-09-03T11:16:31;100217.13;;;20.04;70.98
64352;BME280;50680;52.626;-8.668;2022-09-03T11:19:04;100227.25;;;20.01;73.38
64352;BME280;50680;52.626;-8.668;2022-09-03T11:21:33;100223.94;;;20.07;71.32
64352;BME280;50680;52.626;-8.668;2022-09-03T11:26:35;100214.28;;;19.98;73.55
64352;BME280;50680;52.626;-8.668;2022-09-03T11:29:16;100205.81;;;19.94;71.92
64352;BME280;50680;52.626;-8.668;2022-09-03T11:32:00;100215.44;;;20.12;76.19
64352;BME280;50680;52.626;-8.668;2022-09-03T11:34:53;100218.13;;;20.20;71.75
64352;BME280;50680;52.626;-8.668;2022-09-03T11:37:26;100227.63;;;20.39;73.34
64352;BME280;50680;52.626;-8.668;2022-09-03T11:42:37;100218.31;;;20.26;69.32
64352;BME280;50680;52.626;-8.668;2022-09-03T11:47:45;100215.63;;;20.18;73.56
64352;BME280;50680;52.626;-8.668;2022-09-03T11:50:19;100214.94;;;19.91;66.86
64352;BME280;50680;52.626;-8.668;2022-09-03T11:52:48;100206.31;;;19.98;66.73
64352;BME280;50680;52.626;-8.668;2022-09-03T11:55:29;100210.47;;;20.08;62.22
64352;BME280;50680;52.626;-8.668;2022-09-03T11:58:35;100202.13;;;20.44;65.13
64352;BME280;50680;52.626;-8.668;2022-09-03T12:01:08;100201.97;;;20.54;65.25
64352;BME280;50680;52.626;-8.668;2022-09-03T12:03:48;100203.78;;;20.78;65.96
64352;BME280;50680;52.626;-8.668;2022-09-03T12:12:34;100181.97;;;21.22;61.93
64352;BME280;50680;52.626;-8.668;2022-09-03T12:18:03;100177.66;;;21.21;56.88
64352;BME280;50680;52.626;-8.668;2022-09-03T12:20:47;100170.69;;;21.12;63.75
64352;BME280;50680;52.626;-8.668;2022-09-03T12:23:29;100171.44;;;21.29;60.54
64352;BME280;50680;52.626;-8.668;2022-09-03T12:26:04;100172.88;;;21.00;60.00
64352;BME280;50680;52.626;-8.668;2022-09-03T12:28:35;100166.41;;;21.34;63.98
64352;BME280;50680;52.626;-8.668;2022-09-03T12:31:15;100165.94;;;21.85;58.51
64352;BME280;50680;52.626;-8.668;2022-09-03T12:33:52;100172.00;;;21.79;57.53
64352;BME280;50680;52.626;-8.668;2022-09-03T12:36:21;100166.88;;;21.69;61.58
64352;BME280;50680;52.626;-8.668;2022-09-03T12:38:48;100156.81;;;21.79;63.58
64352;BME280;50680;52.626;-8.668;2022-09-03T12:41:35;100159.94;;;22.29;61.16
64352;BME280;50680;52.626;-8.668;2022-09-03T12:44:03;100163.06;;;22.33;57.93
64352;BME280;50680;52.626;-8.668;2022-09-03T12:46:31;100166.63;;;22.25;57.14
64352;BME280;50680;52.626;-8.668;2022-09-03T12:49:04;100162.81;;;22.05;53.25
64352;BME280;50680;52.626;-8.668;2022-09-03T12:54:46;100170.28;;;21.63;55.53
64352;BME280;50680;52.626;-8.668;2022-09-03T12:57:19;100154.75;;;21.35;54.01
64352;BME280;50680;52.626;-8.668;2022-09-03T12:59:49;100158.59;;;21.64;59.49
64352;BME280;50680;52.626;-8.668;2022-09-03T13:02:27;100159.69;;;21.47;58.78
64352;BME280;50680;52.626;-8.668;2022-09-03T13:04:56;100152.88;;;21.44;60.14
64352;BME280;50680;52.626;-8.668;2022-09-03T13:09:59;100149.44;;;20.96;56.03
64352;BME280;50680;52.626;-8.668;2022-09-03T13:12:33;100144.16;;;20.79;58.43
64352;BME280;50680;52.626;-8.668;2022-09-03T13:15:04;100140.34;;;20.57;60.96
64352;BME280;50680;52.626;-8.668;2022-09-03T13:26:18;100156.22;;;19.77;63.04
64352;BME280;50680;52.626;-8.668;2022-09-03T13:29:01;100157.19;;;19.59;67.31
64352;BME280;50680;52.626;-8.668;2022-09-03T13:31:40;100164.59;;;19.39;70.26
64352;BME280;50680;52.626;-8.668;2022-09-03T13:34:25;100155.56;;;19.15;73.14
64352;BME280;50680;52.626;-8.668;2022-09-03T13:39:40;100153.94;;;19.31;71.38
64352;BME280;50680;52.626;-8.668;2022-09-03T13:42:16;100152.69;;;19.68;73.00
64352;BME280;50680;52.626;-8.668;2022-09-03T13:44:47;100145.53;;;19.68;72.04
64352;BME280;50680;52.626;-8.668;2022-09-03T13:50:15;100143.00;;;19.42;72.60
64352;BME280;50680;52.626;-8.668;2022-09-03T13:52:54;100143.94;;;19.16;73.67
64352;BME280;50680;52.626;-8.668;2022-09-03T13:58:27;100129.13;;;19.06;77.15
64352;BME280;50680;52.626;-8.668;2022-09-03T14:03:30;100137.78;;;20.08;71.90
64352;BME280;50680;52.626;-8.668;2022-09-03T14:17:18;100122.84;;;21.42;55.65
64352;BME280;50680;52.626;-8.668;2022-09-03T14:19:57;100124.84;;;21.48;56.28
64352;BME280;50680;52.626;-8.668;2022-09-03T14:22:42;100127.84;;;21.14;54.97
64352;BME280;50680;52.626;-8.668;2022-09-03T14:25:15;100128.16;;;21.19;57.57
64352;BME280;50680;52.626;-8.668;2022-09-03T14:27:42;100124.91;;;21.00;59.78
64352;BME280;50680;52.626;-8.668;2022-09-03T14:32:50;100139.44;;;20.17;66.24
64352;BME280;50680;52.626;-8.668;2022-09-03T14:35:35;100136.72;;;19.60;69.09
64352;BME280;50680;52.626;-8.668;2022-09-03T14:38:26;100144.13;;;19.23;73.76
64352;BME280;50680;52.626;-8.668;2022-09-03T14:47:34;100139.97;;;18.60;83.91
64352;BME280;50680;52.626;-8.668;2022-09-03T14:50:21;100142.19;;;18.38;83.45
64352;BME280;50680;52.626;-8.668;2022-09-03T14:54:02;100137.75;;;18.21;83.30
64352;BME280;50680;52.626;-8.668;2022-09-03T14:56:04;100130.41;;;18.15;83.62
64352;BME280;50680;52.626;-8.668;2022-09-03T15:02:06;100129.88;;;18.11;82.78
64352;BME280;50680;52.626;-8.668;2022-09-03T15:12:42;100126.91;;;17.88;84.37
64352;BME280;50680;52.626;-8.668;2022-09-03T15:15:23;100135.53;;;17.72;85.79
64352;BME280;50680;52.626;-8.668;2022-09-03T15:18:09;100130.56;;;17.59;87.30
64352;BME280;50680;52.626;-8.668;2022-09-03T15:20:52;100129.03;;;17.39;90.91
64352;BME280;50680;52.626;-8.668;2022-09-03T15:29:47;100120.56;;;16.42;100.00
64352;BME280;50680;52.626;-8.668;2022-09-03T15:35:05;100116.16;;;16.13;100.00
64352;BME280;50680;52.626;-8.668;2022-09-03T15:37:46;100115.47;;;16.11;100.00
64352;BME280;50680;52.626;-8.668;2022-09-03T15:43:16;100134.81;;;16.12;100.00
64352;BME280;50680;52.626;-8.668;2022-09-03T15:48:37;100116.72;;;16.17;100.00
64352;BME280;50680;52.626;-8.668;2022-09-03T15:51:25;100124.25;;;16.12;100.00
64352;BME280;50680;52.626;-8.668;2022-09-03T15:57:08;100124.25;;;16.12;100.00
64352;BME280;50680;52.626;-8.668;2022-09-03T15:59:52;100126.34;;;16.18;100.00
64352;BME280;50680;52.626;-8.668;2022-09-03T16:05:24;100115.97;;;16.44;100.00
64352;BME280;50680;52.626;-8.668;2022-09-03T16:11:12;100126.97;;;16.40;100.00
64352;BME280;50680;52.626;-8.668;2022-09-03T16:17:17;100129.81;;;16.19;100.00
64352;BME280;50680;52.626;-8.668;2022-09-03T16:25:16;100136.47;;;15.64;100.00